• Join FlightAware (Why Join?)
  • Login
  • US Flag 
03:03AM EDT


 

Airport Tracker/Info


-or-


 

Live Flight TrackerFlight Track Log ✈ UPS1325 ✈ 06-Sep-2013 ✈ KMCO - KSDF

Flight Track Log - Related Links

Times and Time Zones

All times are in EDT time to prevent confusion due to time zone crossing. See the UPS1325 flight status page for this flight to view local times or setup timezone preferences in your user account.

Time Position Orientation Groundspeed Altitude Reporting Facility
EDT Latitude Longitude Course Direction KTS MPH feet Rate Location/Type
10:19PM 28.4540 -81.3250 North 185 213 1,400  Level FlightAware
10:19PM 28.4700 -81.3230 North 221 254 1,800 2,280 Climbing FlightAware
10:19PM 28.4980 -81.3190 North 260 299 2,900 3,360 Climbing FlightAware
10:19PM 28.5150 -81.3160 North 263 303 4,000 4,080 Climbing FlightAware
10:20PM 28.5450 -81.3120 North 281 323 5,500 4,080 Climbing FlightAware
10:20PM 28.5910 -81.3130 359° North 293 337 8,000 4,800 Climbing FlightAware
10:21PM 28.6180 -81.3160 354° North 281 323 9,900 4,380 Climbing FlightAware
10:21PM 28.6670 -81.3230 353° North 315 362 12,100 2,820 Climbing FlightAware
10:22PM 28.7180 -81.3310 352° North 369 425 13,200 2,100 Climbing FlightAware
10:22PM 28.7820 -81.3410 352° North 414 476 14,500 2,880 Climbing FlightAware
10:23PM 28.8540 -81.3530 352° North 426 490 16,700 3,600 Climbing FlightAware
10:24PM 28.9180 -81.3610 354° North 435 501 18,700 3,720 Climbing FlightAware
10:24PM 28.9920 -81.3720 353° North 439 505 21,000 3,240 Climbing FlightAware
10:25PM 29.0640 -81.3830 352° North 457 526 22,600 2,580 Climbing FlightAware
10:25PM 29.1430 -81.3940 353° North 476 548 24,100 2,220 Climbing FlightAware
10:26PM 29.2170 -81.4000 356° North 492 566 25,200 2,040 Climbing FlightAware
10:27PM 29.2940 -81.4080 355° North 505 581 26,400 2,580 Climbing FlightAware
10:27PM 29.3810 -81.4160 355° North 501 577 28,300 3,060 Climbing FlightAware
10:28PM 29.4500 -81.4220 356° North 497 572 29,900 3,300 Climbing FlightAware
10:28PM 29.5400 -81.4310 355° North 487 560 32,100 3,000 Climbing FlightAware
10:29PM 29.6180 -81.4380 356° North 484 557 33,600 2,340 Climbing FlightAware
10:29PM 29.7000 -81.4480 354° North 478 550 34,900 1,200 Climbing FlightAware
10:30PM 29.7670 -81.4730 342° North 467 537 35,000 60 Climbing FlightAware
10:31PM 29.8310 -81.5170 329° Northwest 464 534 35,000 120 Level FlightAware
10:31PM 29.8920 -81.5760 320° Northwest 465 535 35,200 900 Climbing FlightAware
10:32PM 29.9460 -81.6280 320° Northwest 464 534 36,100 1,560 Climbing FlightAware
10:32PM 30.0050 -81.6860 320° Northwest 463 533 37,000 720 Climbing FlightAware
10:33PM 30.0620 -81.7420 320° Northwest 458 527 37,000  Level FlightAware
10:34PM 30.1210 -81.7990 320° Northwest 456 525 37,000  Level FlightAware
10:34PM 30.1810 -81.8380 331° Northwest 463 533 37,000  Level FlightAware
10:35PM 30.2540 -81.8650 342° North 476 548 37,000  Level FlightAware
10:36PM 30.3630 -81.8700 358° North 491 565 37,000  Level FlightAware
10:36PM 30.4420 -81.8580 North 491 565 37,000  Level FlightAware
10:37PM 30.5120 -81.8490 North 491 565 37,000  Level FlightAware
10:37PM 30.5790 -81.8530 357° North 480 552 37,000  Level FlightAware
10:38PM 30.6530 -81.8790 343° North 477 549 37,000  Level FlightAware
10:38PM 30.7300 -81.9060 343° North 475 547 37,000  Level FlightAware
10:39PM 30.8070 -81.9340 343° North 477 549 37,000  Level FlightAware
10:39PM 30.8730 -81.9580 343° North 479 551 37,000  Level FlightAware
10:40PM 30.9470 -81.9850 343° North 479 551 37,000  Level FlightAware
10:41PM 31.0280 -82.0150 342° North 479 551 37,000 60 Level FlightAware
10:41PM 31.0920 -82.0380 343° North 480 552 37,100  Climbing FlightAware
10:42PM 31.1760 -82.0680 343° North 481 554 37,000  Descending FlightAware
10:42PM 31.2530 -82.0960 343° North 481 554 37,100  Climbing FlightAware
10:43PM 31.3280 -82.1240 342° North 478 550 37,000 -120 Descending FlightAware
10:44PM 31.4010 -82.1510 342° North 475 547 37,000  Level FlightAware
10:44PM 31.4720 -82.1770 343° North 473 544 37,000  Level FlightAware
10:45PM 31.5410 -82.2020 343° North 471 542 37,000  Level FlightAware
10:45PM 31.6170 -82.2300 343° North 469 540 37,000  Level FlightAware
10:46PM 31.7370 -82.2740 343° North 469 540 37,000  Level FlightAware
10:47PM 31.8120 -82.3020 342° North 472 543 37,000  Level FlightAware
10:47PM 31.8770 -82.3270 342° North 474 545 37,000 60 Level FlightAware
10:48PM 31.9560 -82.3560 343° North 475 547 37,100 60 Climbing FlightAware
10:49PM 32.0300 -82.3830 343° North 474 545 37,100 -120 Level FlightAware
10:49PM 32.1020 -82.4100 342° North 473 544 37,000 -120 Descending FlightAware
10:50PM 32.1780 -82.4380 343° North 471 542 37,000  Level FlightAware
10:50PM 32.2510 -82.4650 343° North 469 540 37,000  Level FlightAware
10:51PM 32.3190 -82.4910 342° North 468 539 37,000  Level FlightAware
10:52PM 32.3900 -82.5170 343° North 467 537 37,000  Level FlightAware
10:52PM 32.4670 -82.5460 342° North 466 536 37,000  Level FlightAware
10:53PM 32.5380 -82.5730 342° North 467 537 37,000  Level FlightAware
10:53PM 32.6040 -82.5980 342° North 468 539 37,000  Level FlightAware
10:54PM 32.6800 -82.6270 342° North 469 540 37,000  Level FlightAware
10:54PM 32.7510 -82.6540 342° North 470 541 37,000  Level FlightAware
10:55PM 32.8280 -82.6830 342° North 471 542 37,000  Level FlightAware
10:56PM 32.8960 -82.7090 342° North 471 542 37,000 60 Level FlightAware
10:56PM 32.9720 -82.7370 343° North 471 542 37,100  Climbing FlightAware
10:57PM 33.0400 -82.7640 342° North 471 542 37,000 -120 Descending FlightAware
10:57PM 33.1170 -82.7930 342° North 470 541 37,000  Level FlightAware
10:58PM 33.1890 -82.8200 343° North 468 539 37,000  Level FlightAware
10:59PM 33.2660 -82.8490 343° North 467 537 37,000  Level FlightAware
10:59PM 33.3310 -82.8740 342° North 467 537 37,000  Level FlightAware
11:00PM 33.4030 -82.9020 342° North 464 534 37,000  Level FlightAware
11:00PM 33.4790 -82.9320 342° North 463 533 37,000  Level FlightAware
11:01PM 33.5450 -82.9570 342° North 462 532 37,000  Level FlightAware
11:01PM 33.6220 -82.9870 342° North 464 534 37,000  Level FlightAware
11:02PM 33.6870 -83.0120 342° North 468 539 37,000  Level FlightAware
11:03PM 33.7650 -83.0420 342° North 470 541 37,000 60 Level FlightAware
11:03PM 33.8360 -83.0700 342° North 468 539 37,100  Climbing FlightAware
11:04PM 33.9130 -83.1000 342° North 462 532 37,000 -120 Descending FlightAware
11:04PM 33.9790 -83.1250 343° North 460 529 37,000  Level FlightAware
11:05PM 34.0500 -83.1520 343° North 458 527 37,000  Level FlightAware
11:06PM 34.1250 -83.1820 342° North 459 528 37,000  Level FlightAware
11:06PM 34.1890 -83.2070 342° North 461 531 37,000  Level FlightAware
11:07PM 34.2650 -83.2370 342° North 461 531 37,000  Level FlightAware
11:07PM 34.3350 -83.2650 342° North 462 532 37,000  Level FlightAware
11:08PM 34.4030 -83.2910 342° North 464 534 37,000  Level FlightAware
11:08PM 34.4780 -83.3210 342° North 464 534 37,000  Level FlightAware
11:09PM 34.5510 -83.3500 342° North 465 535 37,000  Level FlightAware
11:10PM 34.6230 -83.3790 342° North 464 534 37,000 60 Level FlightAware
11:10PM 34.6900 -83.4050 342° North 461 531 37,100  Climbing FlightAware
11:11PM 34.7630 -83.4400 339° North 455 524 37,000 -120 Descending FlightAware
11:11PM 34.8345 -83.4758 338° Northwest 452 520 37,000  Level FlightAware ADS-B
11:12PM 34.9000 -83.5090 337° Northwest 450 518 37,000  Level FlightAware
11:12PM 34.9366 -83.5269 338° Northwest 451 519 37,000  Level FlightAware ADS-B
11:13PM 35.0320 -83.5760 337° Northwest 455 524 37,000  Level FlightAware
11:13PM 35.0452 -83.5825 338° Northwest 456 525 37,000  Level FlightAware ADS-B
11:14PM 35.1049 -83.6129 337° Northwest 456 525 37,000  Level FlightAware ADS-B
11:14PM 35.1688 -83.6453 337° Northwest 457 526 37,000  Level FlightAware ADS-B
11:15PM 35.2283 -83.6756 337° Northwest 459 528 37,000  Level FlightAware ADS-B
11:15PM 35.2924 -83.7080 338° Northwest 461 531 37,000  Level FlightAware ADS-B
11:16PM 35.3548 -83.7399 337° Northwest 463 533 37,000  Level FlightAware ADS-B
11:16PM 35.4155 -83.7711 337° Northwest 464 534 37,000 60 Level FlightAware ADS-B
11:17PM 35.4755 -83.8020 337° Northwest 462 532 37,100  Climbing FlightAware ADS-B
11:17PM 35.5388 -83.8340 338° Northwest 460 529 37,000 -120 Descending FlightAware ADS-B
11:18PM 35.5979 -83.8643 337° Northwest 459 528 37,000  Level FlightAware ADS-B
11:18PM 35.6575 -83.8952 337° Northwest 458 527 37,000  Level FlightAware ADS-B
11:19PM 35.7166 -83.9255 337° Northwest 458 527 37,000  Level FlightAware ADS-B
11:19PM 35.7793 -83.9581 337° Northwest 457 526 37,000  Level FlightAware ADS-B
11:20PM 35.8407 -83.9899 337° Northwest 457 526 37,000  Level FlightAware ADS-B
11:21PM 35.9039 -84.0225 337° Northwest 457 526 37,000  Level FlightAware ADS-B
11:21PM 35.9630 -84.0532 337° Northwest 458 527 37,000  Level FlightAware ADS-B
11:22PM 36.0221 -84.0839 337° Northwest 459 528 37,000 -420 Level FlightAware ADS-B
11:22PM 36.0819 -84.1153 337° Northwest 459 528 36,600 -960 Descending FlightAware ADS-B
11:23PM 36.1463 -84.1491 337° Northwest 453 521 36,000 -1,080 Descending FlightAware ADS-B
11:23PM 36.2050 -84.1795 337° Northwest 451 519 35,500 -960 Descending FlightAware ADS-B
11:24PM 36.2804 -84.2189 337° Northwest 457 526 34,900 -960 Descending FlightAware ADS-B
11:24PM 36.3401 -84.2501 337° Northwest 458 527 34,400 -1,020 Descending FlightAware ADS-B
11:25PM 36.3997 -84.2815 337° Northwest 461 531 33,900 -1,020 Descending FlightAware ADS-B
11:25PM 36.4595 -84.3129 337° Northwest 464 534 33,400 -1,020 Descending FlightAware ADS-B
11:26PM 36.5192 -84.3444 337° Northwest 466 536 32,900 -1,020 Descending FlightAware ADS-B
11:26PM 36.5821 -84.3776 337° Northwest 468 539 32,400 -1,080 Descending FlightAware ADS-B
11:27PM 36.6460 -84.4115 337° Northwest 471 542 31,800 -1,080 Descending FlightAware ADS-B
11:27PM 36.7075 -84.4440 337° Northwest 473 544 31,300 -1,020 Descending FlightAware ADS-B
11:28PM 36.7460 -84.4642 337° Northwest 476 548 31,000 -1,380 Descending FlightAware ADS-B
11:28PM 36.7703 -84.4736 343° North 473 544 30,600 -1,920 Descending FlightAware ADS-B
11:28PM 36.8487 -84.4889 351° North 476 548 29,500 -2,760 Descending FlightAware ADS-B
11:29PM 36.9189 -84.5017 352° North 479 551 27,500 -3,480 Descending FlightAware ADS-B
11:30PM 36.9852 -84.5125 353° North 470 541 25,900 -3,000 Descending FlightAware ADS-B
11:30PM 37.0498 -84.5216 354° North 460 529 24,500 -2,820 Descending FlightAware ADS-B
11:31PM 37.1140 -84.5299 354° North 448 516 23,100 -2,760 Descending FlightAware ADS-B
11:31PM 37.1790 -84.5385 354° North 437 503 21,700 -2,640 Descending FlightAware ADS-B
11:32PM 37.2346 -84.5464 354° North 428 493 20,500 -2,700 Descending FlightAware ADS-B
11:32PM 37.2537 -84.5508 350° North 426 490 20,000 -2,880 Descending FlightAware ADS-B
11:32PM 37.2663 -84.5557 343° North 425 489 19,700 -2,580 Descending FlightAware ADS-B
11:32PM 37.2785 -84.5622 337° Northwest 423 487 19,400 -2,520 Descending FlightAware ADS-B
11:32PM 37.2960 -84.5754 329° Northwest 421 484 19,000 -2,640 Descending FlightAware ADS-B
11:33PM 37.3412 -84.6230 320° Northwest 415 478 17,600 -2,700 Descending FlightAware ADS-B
11:33PM 37.3920 -84.6770 320° Northwest 406 467 16,000 -2,760 Descending FlightAware
11:33PM 37.4117 -84.6970 321° Northwest 404 465 15,400 -2,160 Descending FlightAware ADS-B
11:34PM 37.4725 -84.7608 320° Northwest 401 461 14,000 -2,460 Descending FlightAware ADS-B
11:35PM 37.5360 -84.8250 321° Northwest 368 423 11,700 -2,340 Descending FlightAware
11:36PM 37.5820 -84.8770 318° Northwest 365 420 10,700 -1,440 Descending FlightAware
11:36PM 37.6220 -84.9210 319° Northwest 357 411 10,100 -900 Descending FlightAware
11:36PM 37.6510 -84.9520 320° Northwest 360 414 9,900 -420 Descending FlightAware
11:37PM 37.6740 -84.9800 316° Northwest 361 415 9,800  Descending FlightAware
11:37PM 37.6970 -85.0130 311° West 349 402 9,900  Climbing FlightAware
11:37PM 37.7190 -85.0430 313° West 333 383 9,800 -180 Descending FlightAware
11:38PM 37.7360 -85.0650 314° West 316 364 9,800  Level FlightAware
11:38PM 37.7550 -85.0910 313° West 291 335 9,800 -180 Level FlightAware
11:38PM 37.7730 -85.1160 312° West 277 319 9,700 -960 Descending FlightAware
11:39PM 37.7930 -85.1430 313° West 276 318 9,100 -1,680 Descending FlightAware
11:39PM 37.8020 -85.1580 307° West 278 320 8,700 -1,800 Descending FlightAware
11:39PM 37.8060 -85.1710 291° West 280 322 8,500 -1,500 Descending FlightAware
11:39PM 37.8160 -85.2010 293° West 277 319 8,000 -1,500 Descending FlightAware
11:40PM 37.8240 -85.2240 294° West 275 316 7,600 -1,500 Descending FlightAware
11:40PM 37.8350 -85.2550 294° West 273 314 7,100 -1,500 Descending FlightAware
11:40PM 37.8440 -85.2850 291° West 271 312 6,600 -1,380 Descending FlightAware
11:41PM 37.8520 -85.3110 291° West 268 308 6,200 -1,380 Descending FlightAware
11:41PM 37.8660 -85.3560 292° West 267 307 5,500 -1,500 Descending FlightAware
11:41PM 37.8720 -85.3780 289° West 268 308 5,100 -1,200 Descending FlightAware
11:42PM 37.8810 -85.4070 291° West 257 296 4,800 -900 Descending FlightAware
11:42PM 37.8890 -85.4350 290° West 251 289 4,500 -840 Descending FlightAware
11:42PM 37.8960 -85.4550 294° West 242 278 4,300 -1,020 Descending FlightAware
11:43PM 37.9040 -85.4820 291° West 240 276 3,900 -660 Descending FlightAware
11:43PM 37.9110 -85.5040 292° West 244 281 3,900  Level FlightAware
11:43PM 37.9190 -85.5300 291° West 243 280 3,900  Level FlightAware
11:44PM 37.9270 -85.5550 292° West 243 280 3,900  Level FlightAware
11:44PM 37.9350 -85.5800 292° West 243 280 3,900 -180 Level FlightAware
11:44PM 37.9430 -85.6080 290° West 236 272 3,800  Descending FlightAware
11:45PM 37.9520 -85.6360 292° West 209 241 3,900 120 Climbing FlightAware
11:45PM 37.9560 -85.6520 288° West 193 222 3,900  Level FlightAware
11:45PM 37.9610 -85.6680 292° West 180 207 3,900 -300 Level FlightAware
11:45PM 37.9650 -85.6730 315° West 180 207 3,800 -540 Descending FlightAware
11:45PM 37.9680 -85.6760 322° Northwest 179 206 3,800 480 Level FlightAware
11:46PM 37.9740 -85.6780 345° North 177 204 3,900 -480 Climbing FlightAware
11:46PM 37.9880 -85.6840 341° North 169 194 3,600 -1,020 Descending FlightAware
11:46PM 38.0010 -85.6880 346° North 161 185 3,300 -840 Descending FlightAware
11:46PM 38.0100 -85.6910 345° North 160 184 3,200 -660 Descending FlightAware
11:47PM 38.0290 -85.6970 346° North 162 186 2,900 -780 Descending FlightAware
11:47PM 38.0400 -85.7000 348° North 163 188 2,700 -900 Descending FlightAware
11:47PM 38.0540 -85.7050 344° North 162 186 2,400 -900 Descending FlightAware
11:48PM 38.0660 -85.7090 345° North 162 186 2,100 -960 Descending FlightAware
11:48PM 38.0870 -85.7160 345° North 161 185 1,700 -960 Descending FlightAware
11:48PM 38.1020 -85.7210 345° North 161 185 1,400 -840 Descending FlightAware
11:49PM 38.1140 -85.7250 345° North 162 186 1,200 -840 Descending FlightAware
11:49PM 38.1290 -85.7300 345° North 162 186 900 -840 Descending FlightAware
11:49PM 38.1410 -85.7340 345° North 162 186 700 -780 Descending FlightAware
11:50PM 38.1510 -85.7370 347° North 161 185 500 -480 Descending FlightAware
11:50PM 38.1750 -85.7450 345° North 157 181 300 -360 Descending FlightAware